sensor_id;sensor_type;location;lat;lon;timestamp;pressure;altitude;pressure_sealevel;temperature;humidity
56420;BME280;42323;52.170;7.538;2022-12-10T00:02:22;100449.72;;;-0.12;85.16
56420;BME280;42323;52.170;7.538;2022-12-10T00:04:48;100433.19;;;-0.21;84.81
56420;BME280;42323;52.170;7.538;2022-12-10T00:07:15;100443.03;;;-0.15;83.60
56420;BME280;42323;52.170;7.538;2022-12-10T00:09:42;100469.88;;;-0.06;82.63
56420;BME280;42323;52.170;7.538;2022-12-10T00:12:08;100470.91;;;-0.09;83.14
56420;BME280;42323;52.170;7.538;2022-12-10T00:14:35;100462.00;;;-0.16;83.34
56420;BME280;42323;52.170;7.538;2022-12-10T00:17:02;100465.88;;;-0.10;83.21
56420;BME280;42323;52.170;7.538;2022-12-10T00:19:33;100457.66;;;-0.15;83.76
56420;BME280;42323;52.170;7.538;2022-12-10T00:22:01;100468.78;;;-0.15;83.76
56420;BME280;42323;52.170;7.538;2022-12-10T00:24:27;100467.03;;;-0.14;83.53
56420;BME280;42323;52.170;7.538;2022-12-10T00:26:54;100473.59;;;-0.10;84.28
56420;BME280;42323;52.170;7.538;2022-12-10T00:29:21;100481.09;;;-0.07;84.42
56420;BME280;42323;52.170;7.538;2022-12-10T00:31:48;100485.31;;;-0.06;84.12
56420;BME280;42323;52.170;7.538;2022-12-10T00:34:14;100469.13;;;-0.19;84.31
56420;BME280;42323;52.170;7.538;2022-12-10T00:36:44;100496.56;;;-0.07;84.77
56420;BME280;42323;52.170;7.538;2022-12-10T00:39:13;100481.31;;;-0.10;84.98
56420;BME280;42323;52.170;7.538;2022-12-10T00:41:40;100494.25;;;0.01;84.72
56420;BME280;42323;52.170;7.538;2022-12-10T00:44:08;100494.34;;;-0.01;85.07
56420;BME280;42323;52.170;7.538;2022-12-10T00:46:35;100448.72;;;-0.22;85.01
56420;BME280;42323;52.170;7.538;2022-12-10T00:49:02;100495.06;;;0.02;84.72
56420;BME280;42323;52.170;7.538;2022-12-10T00:51:29;100489.59;;;0.06;85.16
56420;BME280;42323;52.170;7.538;2022-12-10T00:53:57;100492.03;;;0.08;84.93
56420;BME280;42323;52.170;7.538;2022-12-10T00:56:27;100497.91;;;0.10;84.54
56420;BME280;42323;52.170;7.538;2022-12-10T00:58:55;100495.66;;;0.05;84.42
56420;BME280;42323;52.170;7.538;2022-12-10T01:04:18;100495.34;;;0.10;84.62
56420;BME280;42323;52.170;7.538;2022-12-10T01:06:51;100499.41;;;0.12;84.12
56420;BME280;42323;52.170;7.538;2022-12-10T01:09:23;100494.94;;;0.03;83.76
56420;BME280;42323;52.170;7.538;2022-12-10T01:11:52;100502.94;;;0.11;83.54
56420;BME280;42323;52.170;7.538;2022-12-10T01:14:30;100467.16;;;-0.16;83.45
56420;BME280;42323;52.170;7.538;2022-12-10T01:16:59;100499.06;;;0.06;83.10
56420;BME280;42323;52.170;7.538;2022-12-10T01:19:29;100515.13;;;0.09;82.93
56420;BME280;42323;52.170;7.538;2022-12-10T01:21:57;100469.72;;;-0.16;83.13
56420;BME280;42323;52.170;7.538;2022-12-10T01:24:26;100511.72;;;0.09;82.71
56420;BME280;42323;52.170;7.538;2022-12-10T01:26:56;100489.19;;;-0.01;80.90
56420;BME280;42323;52.170;7.538;2022-12-10T01:29:24;100485.09;;;-0.03;80.31
56420;BME280;42323;52.170;7.538;2022-12-10T01:31:52;100491.69;;;0.01;80.28
56420;BME280;42323;52.170;7.538;2022-12-10T01:34:20;100494.69;;;-0.05;80.30
56420;BME280;42323;52.170;7.538;2022-12-10T01:36:52;100504.88;;;-0.04;80.12
56420;BME280;42323;52.170;7.538;2022-12-10T01:39:22;100514.13;;;-0.01;80.38
56420;BME280;42323;52.170;7.538;2022-12-10T01:41:53;100502.75;;;-0.10;80.78
56420;BME280;42323;52.170;7.538;2022-12-10T01:46:59;100524.22;;;0.02;81.66
56420;BME280;42323;52.170;7.538;2022-12-10T01:49:31;100518.03;;;0.05;82.16
56420;BME280;42323;52.170;7.538;2022-12-10T01:51:59;100524.69;;;0.07;82.41
56420;BME280;42323;52.170;7.538;2022-12-10T01:54:33;100522.34;;;0.04;81.28
56420;BME280;42323;52.170;7.538;2022-12-10T01:57:03;100500.41;;;-0.13;81.41
56420;BME280;42323;52.170;7.538;2022-12-10T01:59:32;100511.88;;;-0.06;82.28
56420;BME280;42323;52.170;7.538;2022-12-10T02:02:59;100498.75;;;-0.14;82.10
56420;BME280;42323;52.170;7.538;2022-12-10T02:05:23;100526.66;;;0.04;82.32
56420;BME280;42323;52.170;7.538;2022-12-10T02:07:54;100532.63;;;0.04;81.99
56420;BME280;42323;52.170;7.538;2022-12-10T02:10:44;100531.72;;;0.05;82.61
56420;BME280;42323;52.170;7.538;2022-12-10T02:15:48;100532.75;;;0.03;82.26
56420;BME280;42323;52.170;7.538;2022-12-10T02:18:20;100528.44;;;0.03;82.39
56420;BME280;42323;52.170;7.538;2022-12-10T02:20:51;100510.47;;;-0.10;81.97
56420;BME280;42323;52.170;7.538;2022-12-10T02:23:25;100527.13;;;-0.03;81.85
56420;BME280;42323;52.170;7.538;2022-12-10T02:26:03;100529.81;;;-0.04;81.95
56420;BME280;42323;52.170;7.538;2022-12-10T02:31:03;100528.75;;;-0.02;82.04
56420;BME280;42323;52.170;7.538;2022-12-10T02:33:31;100510.91;;;-0.16;81.88
56420;BME280;42323;52.170;7.538;2022-12-10T02:36:00;100531.44;;;-0.03;81.84
56420;BME280;42323;52.170;7.538;2022-12-10T02:38:34;100530.13;;;-0.09;81.82
56420;BME280;42323;52.170;7.538;2022-12-10T02:41:05;100542.69;;;-0.04;82.61
56420;BME280;42323;52.170;7.538;2022-12-10T02:43:34;100533.63;;;-0.10;81.96
56420;BME280;42323;52.170;7.538;2022-12-10T02:46:03;100538.34;;;-0.04;82.16
56420;BME280;42323;52.170;7.538;2022-12-10T02:48:31;100524.41;;;-0.12;81.56
56420;BME280;42323;52.170;7.538;2022-12-10T02:50:59;100531.88;;;-0.09;82.24
56420;BME280;42323;52.170;7.538;2022-12-10T02:53:26;100531.88;;;-0.09;82.41
56420;BME280;42323;52.170;7.538;2022-12-10T02:56:08;100536.59;;;-0.03;82.73
56420;BME280;42323;52.170;7.538;2022-12-10T02:58:42;100533.41;;;-0.07;82.77
56420;BME280;42323;52.170;7.538;2022-12-10T03:04:10;100524.06;;;-0.08;82.61
56420;BME280;42323;52.170;7.538;2022-12-10T03:06:44;100523.56;;;-0.13;82.45
56420;BME280;42323;52.170;7.538;2022-12-10T03:09:19;100525.91;;;-0.10;82.34
56420;BME280;42323;52.170;7.538;2022-12-10T03:11:47;100518.97;;;-0.20;81.93
56420;BME280;42323;52.170;7.538;2022-12-10T03:14:21;100521.41;;;-0.19;82.93
56420;BME280;42323;52.170;7.538;2022-12-10T03:17:07;100517.91;;;-0.18;82.65
56420;BME280;42323;52.170;7.538;2022-12-10T03:19:42;100502.50;;;-0.31;82.51
56420;BME280;42323;52.170;7.538;2022-12-10T03:22:12;100515.19;;;-0.28;82.67
56420;BME280;42323;52.170;7.538;2022-12-10T03:24:40;100500.28;;;-0.35;82.58
56420;BME280;42323;52.170;7.538;2022-12-10T03:27:11;100508.00;;;-0.35;83.05
56420;BME280;42323;52.170;7.538;2022-12-10T03:29:46;100504.84;;;-0.39;83.36
56420;BME280;42323;52.170;7.538;2022-12-10T03:32:15;100497.03;;;-0.50;83.21
56420;BME280;42323;52.170;7.538;2022-12-10T03:34:43;100490.31;;;-0.64;83.69
56420;BME280;42323;52.170;7.538;2022-12-10T03:37:12;100508.31;;;-0.64;83.67
56420;BME280;42323;52.170;7.538;2022-12-10T03:39:41;100505.25;;;-0.69;84.27
56420;BME280;42323;52.170;7.538;2022-12-10T03:42:08;100504.13;;;-0.78;84.13
56420;BME280;42323;52.170;7.538;2022-12-10T03:44:37;100506.28;;;-0.84;84.64
56420;BME280;42323;52.170;7.538;2022-12-10T03:47:06;100496.97;;;-0.98;84.73
56420;BME280;42323;52.170;7.538;2022-12-10T03:49:34;100502.41;;;-1.03;85.14
56420;BME280;42323;52.170;7.538;2022-12-10T03:52:01;100509.91;;;-0.99;85.29
56420;BME280;42323;52.170;7.538;2022-12-10T03:54:28;100509.41;;;-1.05;84.96
56420;BME280;42323;52.170;7.538;2022-12-10T03:56:55;100505.06;;;-1.04;85.29
56420;BME280;42323;52.170;7.538;2022-12-10T03:59:21;100508.91;;;-1.10;85.41
56420;BME280;42323;52.170;7.538;2022-12-10T04:01:48;100514.84;;;-1.09;85.40
56420;BME280;42323;52.170;7.538;2022-12-10T04:04:15;100519.38;;;-1.13;85.43
56420;BME280;42323;52.170;7.538;2022-12-10T04:06:42;100515.38;;;-1.17;85.53
56420;BME280;42323;52.170;7.538;2022-12-10T04:09:10;100518.47;;;-1.24;85.20
56420;BME280;42323;52.170;7.538;2022-12-10T04:11:38;100517.03;;;-1.41;84.88
56420;BME280;42323;52.170;7.538;2022-12-10T04:14:04;100505.00;;;-1.54;85.60
56420;BME280;42323;52.170;7.538;2022-12-10T04:16:50;100516.25;;;-1.69;85.90
56420;BME280;42323;52.170;7.538;2022-12-10T04:19:18;100522.44;;;-1.71;86.23
56420;BME280;42323;52.170;7.538;2022-12-10T04:21:45;100522.72;;;-1.89;86.98
56420;BME280;42323;52.170;7.538;2022-12-10T04:24:32;100532.22;;;-1.91;87.03
56420;BME280;42323;52.170;7.538;2022-12-10T04:27:30;100535.41;;;-2.00;87.46
56420;BME280;42323;52.170;7.538;2022-12-10T04:29:58;100532.41;;;-2.07;87.86
56420;BME280;42323;52.170;7.538;2022-12-10T04:32:27;100513.03;;;-2.25;88.14
56420;BME280;42323;52.170;7.538;2022-12-10T04:34:54;100533.25;;;-2.20;88.33
56420;BME280;42323;52.170;7.538;2022-12-10T04:37:22;100516.28;;;-2.36;88.41
56420;BME280;42323;52.170;7.538;2022-12-10T04:39:49;100516.47;;;-2.39;88.83
56420;BME280;42323;52.170;7.538;2022-12-10T04:42:17;100534.53;;;-2.40;88.85
56420;BME280;42323;52.170;7.538;2022-12-10T04:44:44;100513.69;;;-2.63;89.04
56420;BME280;42323;52.170;7.538;2022-12-10T04:47:11;100534.28;;;-2.50;89.44
56420;BME280;42323;52.170;7.538;2022-12-10T04:49:38;100521.16;;;-2.60;89.55
56420;BME280;42323;52.170;7.538;2022-12-10T04:52:06;100530.03;;;-2.51;89.38
56420;BME280;42323;52.170;7.538;2022-12-10T04:54:33;100547.28;;;-2.53;89.36
56420;BME280;42323;52.170;7.538;2022-12-10T04:57:05;100533.09;;;-2.59;89.99
56420;BME280;42323;52.170;7.538;2022-12-10T04:59:32;100532.53;;;-2.64;90.32
56420;BME280;42323;52.170;7.538;2022-12-10T05:01:59;100529.25;;;-2.66;90.62
56420;BME280;42323;52.170;7.538;2022-12-10T05:04:26;100539.50;;;-2.66;90.71
56420;BME280;42323;52.170;7.538;2022-12-10T05:06:53;100536.59;;;-2.74;90.11
56420;BME280;42323;52.170;7.538;2022-12-10T05:09:19;100535.88;;;-2.76;90.17
56420;BME280;42323;52.170;7.538;2022-12-10T05:11:46;100519.84;;;-2.94;90.56
56420;BME280;42323;52.170;7.538;2022-12-10T05:14:14;100541.72;;;-2.88;90.27
56420;BME280;42323;52.170;7.538;2022-12-10T05:16:41;100550.97;;;-2.86;90.89
56420;BME280;42323;52.170;7.538;2022-12-10T05:19:09;100553.44;;;-2.84;91.06
56420;BME280;42323;52.170;7.538;2022-12-10T05:21:36;100532.66;;;-2.94;91.46
56420;BME280;42323;52.170;7.538;2022-12-10T05:24:22;100534.59;;;-2.97;90.89
56420;BME280;42323;52.170;7.538;2022-12-10T05:26:49;100530.75;;;-3.05;91.20
56420;BME280;42323;52.170;7.538;2022-12-10T05:29:18;100526.44;;;-3.18;91.24
56420;BME280;42323;52.170;7.538;2022-12-10T05:31:45;100520.50;;;-3.19;90.88
56420;BME280;42323;52.170;7.538;2022-12-10T05:34:12;100541.16;;;-3.08;92.00
56420;BME280;42323;52.170;7.538;2022-12-10T05:36:39;100540.06;;;-3.18;91.63
56420;BME280;42323;52.170;7.538;2022-12-10T05:39:07;100551.69;;;-3.12;91.36
56420;BME280;42323;52.170;7.538;2022-12-10T05:41:36;100541.72;;;-3.17;91.57
56420;BME280;42323;52.170;7.538;2022-12-10T05:44:03;100537.50;;;-3.18;92.13
56420;BME280;42323;52.170;7.538;2022-12-10T05:46:32;100542.16;;;-3.24;92.07
56420;BME280;42323;52.170;7.538;2022-12-10T05:49:01;100538.06;;;-3.27;91.90
56420;BME280;42323;52.170;7.538;2022-12-10T05:51:30;100561.56;;;-3.20;91.39
56420;BME280;42323;52.170;7.538;2022-12-10T05:53:58;100555.78;;;-3.24;91.61
56420;BME280;42323;52.170;7.538;2022-12-10T05:56:27;100545.25;;;-3.34;92.33
56420;BME280;42323;52.170;7.538;2022-12-10T05:58:59;100530.25;;;-3.40;91.93
56420;BME280;42323;52.170;7.538;2022-12-10T06:01:29;100559.53;;;-3.30;92.25
56420;BME280;42323;52.170;7.538;2022-12-10T06:03:58;100552.50;;;-3.40;91.74
56420;BME280;42323;52.170;7.538;2022-12-10T06:06:30;100550.75;;;-3.40;92.50
56420;BME280;42323;52.170;7.538;2022-12-10T06:08:58;100566.78;;;-3.36;92.13
56420;BME280;42323;52.170;7.538;2022-12-10T06:11:26;100525.81;;;-3.66;92.37
56420;BME280;42323;52.170;7.538;2022-12-10T06:13:56;100576.19;;;-3.37;93.02
56420;BME280;42323;52.170;7.538;2022-12-10T06:16:25;100521.59;;;-3.67;92.58
56420;BME280;42323;52.170;7.538;2022-12-10T06:18:55;100543.88;;;-3.54;92.85
56420;BME280;42323;52.170;7.538;2022-12-10T06:21:22;100549.72;;;-3.51;92.46
56420;BME280;42323;52.170;7.538;2022-12-10T06:23:50;100511.63;;;-3.72;92.82
56420;BME280;42323;52.170;7.538;2022-12-10T06:26:20;100556.13;;;-3.44;93.08
56420;BME280;42323;52.170;7.538;2022-12-10T06:28:49;100550.47;;;-3.49;92.98
56420;BME280;42323;52.170;7.538;2022-12-10T06:31:16;100541.47;;;-3.57;93.01
56420;BME280;42323;52.170;7.538;2022-12-10T06:33:43;100570.69;;;-3.45;92.75
56420;BME280;42323;52.170;7.538;2022-12-10T06:36:11;100571.66;;;-3.47;93.08
56420;BME280;42323;52.170;7.538;2022-12-10T06:38:38;100558.47;;;-3.56;92.77
56420;BME280;42323;52.170;7.538;2022-12-10T06:41:07;100573.03;;;-3.56;92.91
56420;BME280;42323;52.170;7.538;2022-12-10T06:43:35;100570.63;;;-3.59;92.71
56420;BME280;42323;52.170;7.538;2022-12-10T06:46:10;100574.84;;;-3.58;92.86
56420;BME280;42323;52.170;7.538;2022-12-10T06:48:38;100575.09;;;-3.63;93.13
56420;BME280;42323;52.170;7.538;2022-12-10T06:51:05;100571.63;;;-3.62;93.66
56420;BME280;42323;52.170;7.538;2022-12-10T06:53:34;100567.91;;;-3.56;93.16
56420;BME280;42323;52.170;7.538;2022-12-10T06:56:02;100577.16;;;-3.54;93.50
56420;BME280;42323;52.170;7.538;2022-12-10T06:58:30;100566.03;;;-3.68;92.77
56420;BME280;42323;52.170;7.538;2022-12-10T07:03:30;100585.91;;;-3.58;92.82
56420;BME280;42323;52.170;7.538;2022-12-10T07:05:58;100569.50;;;-3.69;93.41
56420;BME280;42323;52.170;7.538;2022-12-10T07:08:25;100581.47;;;-3.70;92.79
56420;BME280;42323;52.170;7.538;2022-12-10T07:10:52;100575.88;;;-3.76;92.92
56420;BME280;42323;52.170;7.538;2022-12-10T07:13:19;100566.91;;;-3.84;93.18
56420;BME280;42323;52.170;7.538;2022-12-10T07:15:52;100588.59;;;-3.75;92.86
56420;BME280;42323;52.170;7.538;2022-12-10T07:18:19;100576.94;;;-3.81;92.64
56420;BME280;42323;52.170;7.538;2022-12-10T07:20:46;100575.47;;;-3.85;93.36
56420;BME280;42323;52.170;7.538;2022-12-10T07:23:12;100582.81;;;-3.79;93.20
56420;BME280;42323;52.170;7.538;2022-12-10T07:25:39;100591.16;;;-3.75;93.42
56420;BME280;42323;52.170;7.538;2022-12-10T07:28:06;100588.34;;;-3.70;93.58
56420;BME280;42323;52.170;7.538;2022-12-10T07:30:32;100595.19;;;-3.71;93.59
56420;BME280;42323;52.170;7.538;2022-12-10T07:32:59;100603.34;;;-3.64;93.42
56420;BME280;42323;52.170;7.538;2022-12-10T07:35:26;100596.69;;;-3.67;93.51
56420;BME280;42323;52.170;7.538;2022-12-10T07:37:53;100605.91;;;-3.64;93.41
56420;BME280;42323;52.170;7.538;2022-12-10T07:40:23;100610.84;;;-3.61;93.15
56420;BME280;42323;52.170;7.538;2022-12-10T07:42:50;100597.66;;;-3.69;93.55
56420;BME280;42323;52.170;7.538;2022-12-10T07:45:19;100606.06;;;-3.67;93.41
56420;BME280;42323;52.170;7.538;2022-12-10T07:47:46;100599.47;;;-3.71;93.68
56420;BME280;42323;52.170;7.538;2022-12-10T07:50:13;100604.25;;;-3.65;93.59
56420;BME280;42323;52.170;7.538;2022-12-10T07:52:42;100588.66;;;-3.76;93.37
56420;BME280;42323;52.170;7.538;2022-12-10T07:55:09;100607.81;;;-3.68;93.08
56420;BME280;42323;52.170;7.538;2022-12-10T07:57:36;100606.97;;;-3.68;93.01
56420;BME280;42323;52.170;7.538;2022-12-10T08:00:04;100616.25;;;-3.66;93.90
56420;BME280;42323;52.170;7.538;2022-12-10T08:02:32;100606.91;;;-3.67;93.56
56420;BME280;42323;52.170;7.538;2022-12-10T08:05:01;100617.47;;;-3.57;93.36
56420;BME280;42323;52.170;7.538;2022-12-10T08:07:27;100620.69;;;-3.54;93.98
56420;BME280;42323;52.170;7.538;2022-12-10T08:09:54;100627.34;;;-3.51;93.58
56420;BME280;42323;52.170;7.538;2022-12-10T08:12:21;100625.44;;;-3.47;93.45
56420;BME280;42323;52.170;7.538;2022-12-10T08:14:51;100621.13;;;-3.47;93.77
56420;BME280;42323;52.170;7.538;2022-12-10T08:17:18;100614.47;;;-3.49;93.15
56420;BME280;42323;52.170;7.538;2022-12-10T08:19:48;100609.97;;;-3.46;93.47
56420;BME280;42323;52.170;7.538;2022-12-10T08:22:16;100626.41;;;-3.34;94.15
56420;BME280;42323;52.170;7.538;2022-12-10T08:24:43;100630.25;;;-3.27;93.68
56420;BME280;42323;52.170;7.538;2022-12-10T08:27:10;100634.03;;;-3.18;93.00
56420;BME280;42323;52.170;7.538;2022-12-10T08:29:37;100618.84;;;-3.21;93.32
56420;BME280;42323;52.170;7.538;2022-12-10T08:32:03;100634.59;;;-3.13;93.09
56420;BME280;42323;52.170;7.538;2022-12-10T08:34:30;100640.28;;;-3.08;93.22
56420;BME280;42323;52.170;7.538;2022-12-10T08:36:57;100637.81;;;-3.10;93.08
56420;BME280;42323;52.170;7.538;2022-12-10T08:39:23;100637.53;;;-3.05;93.36
56420;BME280;42323;52.170;7.538;2022-12-10T08:41:50;100638.25;;;-3.03;92.65
56420;BME280;42323;52.170;7.538;2022-12-10T08:44:17;100636.78;;;-3.07;93.39
56420;BME280;42323;52.170;7.538;2022-12-10T08:46:44;100663.19;;;-2.91;93.19
56420;BME280;42323;52.170;7.538;2022-12-10T08:49:11;100642.13;;;-2.96;93.13
56420;BME280;42323;52.170;7.538;2022-12-10T08:51:38;100606.88;;;-3.07;93.07
56420;BME280;42323;52.170;7.538;2022-12-10T08:54:05;100642.13;;;-2.82;93.02
56420;BME280;42323;52.170;7.538;2022-12-10T08:56:32;100655.25;;;-2.72;92.99
56420;BME280;42323;52.170;7.538;2022-12-10T08:59:00;100657.34;;;-2.64;92.63
56420;BME280;42323;52.170;7.538;2022-12-10T09:01:27;100659.56;;;-2.58;92.85
56420;BME280;42323;52.170;7.538;2022-12-10T09:03:56;100679.53;;;-2.35;91.85
56420;BME280;42323;52.170;7.538;2022-12-10T09:06:23;100680.72;;;-2.26;92.53
56420;BME280;42323;52.170;7.538;2022-12-10T09:08:50;100664.59;;;-2.28;92.55
56420;BME280;42323;52.170;7.538;2022-12-10T09:11:23;100679.06;;;-2.13;92.28
56420;BME280;42323;52.170;7.538;2022-12-10T09:13:51;100683.72;;;-2.05;92.27
56420;BME280;42323;52.170;7.538;2022-12-10T09:16:18;100682.53;;;-1.99;92.28
56420;BME280;42323;52.170;7.538;2022-12-10T09:18:45;100691.03;;;-1.85;91.95
56420;BME280;42323;52.170;7.538;2022-12-10T09:21:15;100695.59;;;-1.75;92.13
56420;BME280;42323;52.170;7.538;2022-12-10T09:23:43;100680.19;;;-1.75;91.60
56420;BME280;42323;52.170;7.538;2022-12-10T09:26:13;100691.91;;;-1.44;91.78
56420;BME280;42323;52.170;7.538;2022-12-10T09:28:41;100692.63;;;-1.15;92.18
56420;BME280;42323;52.170;7.538;2022-12-10T09:31:09;100700.41;;;-0.90;91.19
56420;BME280;42323;52.170;7.538;2022-12-10T09:33:48;100682.19;;;-0.87;90.80
56420;BME280;42323;52.170;7.538;2022-12-10T09:36:17;100698.25;;;-0.70;90.51
56420;BME280;42323;52.170;7.538;2022-12-10T09:38:46;100678.28;;;-0.80;90.11
56420;BME280;42323;52.170;7.538;2022-12-10T09:47:12;100705.31;;;0.03;87.85
56420;BME280;42323;52.170;7.538;2022-12-10T10:21:56;100644.84;;;0.32;81.02
56420;BME280;42323;52.170;7.538;2022-12-10T10:24:31;100659.22;;;0.83;79.98
56420;BME280;42323;52.170;7.538;2022-12-10T10:29:36;100660.22;;;1.15;76.59
56420;BME280;42323;52.170;7.538;2022-12-10T10:35:04;100677.03;;;1.32;77.19
56420;BME280;42323;52.170;7.538;2022-12-10T10:37:40;100679.47;;;1.34;76.56
56420;BME280;42323;52.170;7.538;2022-12-10T10:40:20;100682.91;;;1.68;77.26
56420;BME280;42323;52.170;7.538;2022-12-10T10:42:48;100659.81;;;1.66;75.08
56420;BME280;42323;52.170;7.538;2022-12-10T10:45:39;100684.25;;;2.39;73.79
56420;BME280;42323;52.170;7.538;2022-12-10T10:50:46;100666.19;;;4.34;66.19
56420;BME280;42323;52.170;7.538;2022-12-10T10:56:04;100676.41;;;5.60;61.73
56420;BME280;42323;52.170;7.538;2022-12-10T10:58:33;100672.28;;;5.40;62.01
56420;BME280;42323;52.170;7.538;2022-12-10T11:03:29;100669.63;;;4.93;61.24
56420;BME280;42323;52.170;7.538;2022-12-10T11:05:58;100679.13;;;5.31;60.13
56420;BME280;42323;52.170;7.538;2022-12-10T11:08:29;100686.13;;;6.05;58.80
56420;BME280;42323;52.170;7.538;2022-12-10T11:11:11;100678.28;;;6.50;56.58
56420;BME280;42323;52.170;7.538;2022-12-10T11:13:39;100675.38;;;6.71;55.87
56420;BME280;42323;52.170;7.538;2022-12-10T11:18:50;100665.31;;;6.94;55.61
56420;BME280;42323;52.170;7.538;2022-12-10T11:21:20;100676.16;;;5.91;55.92
56420;BME280;42323;52.170;7.538;2022-12-10T11:23:55;100684.66;;;4.89;59.44
56420;BME280;42323;52.170;7.538;2022-12-10T11:40:37;100666.22;;;6.85;54.62
56420;BME280;42323;52.170;7.538;2022-12-10T11:51:42;100672.44;;;4.22;62.70
56420;BME280;42323;52.170;7.538;2022-12-10T12:00:03;100680.72;;;3.35;66.54
56420;BME280;42323;52.170;7.538;2022-12-10T12:16:29;100678.94;;;2.41;70.38
56420;BME280;42323;52.170;7.538;2022-12-10T12:19:04;100673.09;;;2.39;70.77
56420;BME280;42323;52.170;7.538;2022-12-10T12:21:35;100671.22;;;2.30;70.76
56420;BME280;42323;52.170;7.538;2022-12-10T12:24:05;100667.97;;;2.16;71.28
56420;BME280;42323;52.170;7.538;2022-12-10T12:26:39;100677.63;;;2.03;72.23
56420;BME280;42323;52.170;7.538;2022-12-10T12:31:41;100683.72;;;1.68;74.02
56420;BME280;42323;52.170;7.538;2022-12-10T12:36:41;100675.97;;;1.46;75.04
56420;BME280;42323;52.170;7.538;2022-12-10T12:42:34;100669.75;;;1.26;76.09
56420;BME280;42323;52.170;7.538;2022-12-10T12:49:56;100669.47;;;0.71;78.60
56420;BME280;42323;52.170;7.538;2022-12-10T12:52:49;100698.88;;;0.69;79.81
56420;BME280;42323;52.170;7.538;2022-12-10T12:58:26;100702.28;;;0.45;80.88
56420;BME280;42323;52.170;7.538;2022-12-10T13:03:54;100698.81;;;0.34;81.60
56420;BME280;42323;52.170;7.538;2022-12-10T13:14:35;100711.16;;;0.41;82.20
56420;BME280;42323;52.170;7.538;2022-12-10T13:17:27;100709.09;;;0.46;81.96
56420;BME280;42323;52.170;7.538;2022-12-10T13:23:49;100700.38;;;0.36;82.16
56420;BME280;42323;52.170;7.538;2022-12-10T13:36:20;100689.25;;;-0.14;84.02
56420;BME280;42323;52.170;7.538;2022-12-10T13:41:24;100719.44;;;-0.03;84.20
56420;BME280;42323;52.170;7.538;2022-12-10T13:44:36;100715.63;;;-0.10;84.09
56420;BME280;42323;52.170;7.538;2022-12-10T13:47:21;100714.09;;;-0.13;85.11
56420;BME280;42323;52.170;7.538;2022-12-10T13:49:56;100714.91;;;-0.12;84.73
56420;BME280;42323;52.170;7.538;2022-12-10T13:52:46;100711.63;;;-0.27;84.88
56420;BME280;42323;52.170;7.538;2022-12-10T13:58:25;100728.72;;;-0.26;85.33
56420;BME280;42323;52.170;7.538;2022-12-10T14:01:00;100729.88;;;-0.30;85.55
56420;BME280;42323;52.170;7.538;2022-12-10T14:06:18;100738.91;;;-0.24;85.55
56420;BME280;42323;52.170;7.538;2022-12-10T14:11:54;100738.41;;;-0.30;85.66
56420;BME280;42323;52.170;7.538;2022-12-10T14:14:35;100731.81;;;-0.34;85.89
56420;BME280;42323;52.170;7.538;2022-12-10T14:17:06;100731.50;;;-0.29;86.47
56420;BME280;42323;52.170;7.538;2022-12-10T14:19:36;100729.94;;;-0.32;85.98
56420;BME280;42323;52.170;7.538;2022-12-10T14:22:06;100743.03;;;-0.22;85.95
56420;BME280;42323;52.170;7.538;2022-12-10T14:24:37;100747.25;;;-0.21;86.20
56420;BME280;42323;52.170;7.538;2022-12-10T14:27:14;100742.19;;;-0.22;86.33
56420;BME280;42323;52.170;7.538;2022-12-10T14:29:46;100740.69;;;-0.25;87.26
56420;BME280;42323;52.170;7.538;2022-12-10T14:32:16;100744.88;;;-0.24;86.20
56420;BME280;42323;52.170;7.538;2022-12-10T14:34:50;100741.00;;;-0.30;86.57
56420;BME280;42323;52.170;7.538;2022-12-10T14:37:22;100742.63;;;-0.29;86.18
56420;BME280;42323;52.170;7.538;2022-12-10T14:39:51;100743.75;;;-0.33;86.32
56420;BME280;42323;52.170;7.538;2022-12-10T14:42:17;100743.25;;;-0.38;86.55
56420;BME280;42323;52.170;7.538;2022-12-10T14:44:45;100731.72;;;-0.45;87.27
56420;BME280;42323;52.170;7.538;2022-12-10T14:47:16;100745.91;;;-0.39;87.34
56420;BME280;42323;52.170;7.538;2022-12-10T14:49:45;100741.88;;;-0.43;87.54
56420;BME280;42323;52.170;7.538;2022-12-10T14:52:15;100738.41;;;-0.42;88.02
56420;BME280;42323;52.170;7.538;2022-12-10T14:54:45;100735.91;;;-0.44;87.68
56420;BME280;42323;52.170;7.538;2022-12-10T14:57:17;100737.88;;;-0.35;87.70
56420;BME280;42323;52.170;7.538;2022-12-10T14:59:54;100735.53;;;-0.38;87.65
56420;BME280;42323;52.170;7.538;2022-12-10T15:02:30;100713.38;;;-0.53;88.17
56420;BME280;42323;52.170;7.538;2022-12-10T15:04:58;100740.69;;;-0.38;88.10
56420;BME280;42323;52.170;7.538;2022-12-10T15:07:30;100734.78;;;-0.40;88.04
56420;BME280;42323;52.170;7.538;2022-12-10T15:10:05;100742.44;;;-0.38;87.48
56420;BME280;42323;52.170;7.538;2022-12-10T15:12:48;100735.09;;;-0.57;88.06
56420;BME280;42323;52.170;7.538;2022-12-10T15:17:58;100743.63;;;-0.57;88.33
56420;BME280;42323;52.170;7.538;2022-12-10T15:20:29;100737.88;;;-0.60;88.89
56420;BME280;42323;52.170;7.538;2022-12-10T15:28:33;100742.09;;;-0.59;89.15
56420;BME280;42323;52.170;7.538;2022-12-10T15:33:51;100742.59;;;-0.67;88.87
56420;BME280;42323;52.170;7.538;2022-12-10T15:36:41;100755.78;;;-0.59;89.11
56420;BME280;42323;52.170;7.538;2022-12-10T15:41:51;100748.59;;;-0.54;89.46
56420;BME280;42323;52.170;7.538;2022-12-10T15:44:36;100747.97;;;-0.57;88.96
56420;BME280;42323;52.170;7.538;2022-12-10T15:47:22;100748.25;;;-0.62;88.67
56420;BME280;42323;52.170;7.538;2022-12-10T15:49:51;100758.66;;;-0.63;88.98
56420;BME280;42323;52.170;7.538;2022-12-10T15:54:48;100756.16;;;-0.65;89.16
56420;BME280;42323;52.170;7.538;2022-12-10T15:57:18;100748.69;;;-0.68;89.86
56420;BME280;42323;52.170;7.538;2022-12-10T15:59:47;100744.88;;;-0.62;89.50
56420;BME280;42323;52.170;7.538;2022-12-10T16:04:55;100751.28;;;-0.55;89.32
56420;BME280;42323;52.170;7.538;2022-12-10T16:07:22;100756.41;;;-0.55;89.12
56420;BME280;42323;52.170;7.538;2022-12-10T16:09:49;100756.31;;;-0.54;89.13
56420;BME280;42323;52.170;7.538;2022-12-10T16:12:16;100761.25;;;-0.51;89.26
56420;BME280;42323;52.170;7.538;2022-12-10T16:14:53;100761.44;;;-0.54;88.50